ADDS METAR Data INFO
IDs: Format: Raw Decoded Include TAF

Data at: 1339 UTC 23 Jun 2018

KUNI 231335Z AUTO 22009KT 10SM SCT010 BKN017 OVC022 21/20 A2979 RMK AO2 P0002 T02120202
KUNI 231315Z AUTO 22006KT 10SM BKN011 OVC017 20/20 A2980 RMK AO2 T02020198
KUNI 231255Z AUTO 23007KT 10SM OVC013 20/20 A2979 RMK AO2 P0002 T02040201
KUNI 231235Z AUTO 20004KT 10SM BKN011 OVC018 20/20 A2979 RMK AO2 LTG DSNT NE P0002 T01990199
KUNI 231215Z AUTO 21005KT 10SM SCT010 BKN013 OVC028 20/20 A2979 RMK AO2 T01960196
KUNI 231155Z AUTO 19006KT 10SM BKN008 OVC015 20/20 A2978 RMK AO2 P0002 60032 70046 T01950195 10195 20185
KUNI 231135Z AUTO 20004KT 10SM BKN008 OVC013 20/20 A2978 RMK AO2 P0002 T01950195
KUNI 231115Z AUTO 21003KT 10SM SCT008 OVC013 19/19 A2977 RMK AO2 T01910191
KUNI 231055Z AUTO 22003KT 10SM SCT008 BKN015 BKN110 19/19 A2977 RMK AO2 P0004 T01900190
KUNI 231035Z AUTO 19004KT 10SM SCT008 SCT032 BKN110 19/19 A2977 RMK AO2 P0002 T01900190
KUNI 231015Z AUTO 19005KT 10SM SCT007 SCT027 OVC042 19/19 A2976 RMK AO2 P0002 T01910191
KUNI 230955Z AUTO 19004KT 10SM SCT007 SCT027 OVC041 19/19 A2976 RMK AO2 P0004 T01910191
KUNI 230935Z AUTO 21004KT 10SM OVC007 19/19 A2975 RMK AO2 P0002 T01920192
KUNI 230915Z AUTO 20004KT 10SM OVC009 19/19 A2975 RMK AO2 T01920192
KUNI 230855Z AUTO 20005KT 10SM BKN009 BKN012 19/19 A2974 RMK AO2 LTG DSNT NE P0006 60022 T01920192
KUNI 230835Z AUTO 18003KT 10SM BKN011 19/19 A2974 RMK AO2 P0004 T01910191
KUNI 230815Z AUTO 21004KT 10SM SCT004 BKN009 OVC026 19/19 A2974 RMK AO2 P0002 T01920192
KUNI 230755Z AUTO 19003KT 10SM BKN008 BKN025 OVC034 19/19 A2974 RMK AO2 P0008 T01910191
KUNI 230735Z AUTO 19003KT 10SM BKN008 BKN027 OVC037 19/19 A2974 RMK AO2 P0006 T01900190
KUNI 230715Z AUTO 19004KT 10SM BKN010 OVC013 19/19 A2974 RMK AO2 P0002 T01890189
KUNI 230655Z AUTO 00000KT 10SM BKN008 OVC013 19/19 A2974 RMK AO2 P0008 T01870187
KUNI 230635Z AUTO 00000KT 10SM SCT008 BKN015 BKN075 19/19 A2974 RMK AO2 P0006 T01860186
KUNI 230615Z AUTO 00000KT 10SM SCT022 SCT027 BKN050 19/19 A2974 RMK AO2 P0002 T01860186
KUNI 230555Z AUTO 00000KT 10SM SCT027 SCT033 OVC049 19/19 A2974 RMK AO2 P0008 60014 T01870187 10195 20187
KUNI 230535Z AUTO 00000KT 10SM SCT031 BKN049 OVC100 19/19 A2974 RMK AO2 P0004 T01890189
KUNI 230515Z AUTO 00000KT 10SM SCT032 SCT043 OVC100 19/19 A2974 RMK AO2 P0002 T01880188
KUNI 230455Z AUTO 16004KT 10SM OVC100 19/19 A2974 RMK AO2 P0006 T01880188
KUNI 230435Z AUTO 00000KT 10SM OVC110 19/19 A2975 RMK AO2 P0004 T01900190
KUNI 230415Z AUTO 00000KT 10SM BKN120 19/19 A2974 RMK AO2 P0002 T01890189
KUNI 230355Z AUTO 17004KT 10SM BKN120 19/19 A2974 RMK AO2 LTG DSNT NW T01900190 402700186
KUNI 230335Z AUTO 15004KT 10SM SCT070 SCT090 BKN120 19/19 A2974 RMK AO2 T01910191
KUNI 230315Z AUTO 15004KT 10SM BKN080 OVC085 19/19 A2974 RMK AO2 T01920192
KUNI 230255Z AUTO 12003KT 10SM SCT037 BKN075 OVC085 19/19 A2975 RMK AO2 T01910191
KUNI 230235Z AUTO 17004KT 10SM -RA SCT040 BKN050 OVC070 19/19 A2976 RMK AO2 T01920192
KUNI 230215Z AUTO 22003KT 10SM -RA BKN065 OVC110 19/19 A2975 RMK AO2 LTG DSNT W AND NW T01920192
KUNI 230155Z AUTO 00000KT 10SM SCT075 SCT090 OVC110 19/19 A2973 RMK AO2 LTG DSNT NW T01900190
KUNI 230135Z AUTO 00000KT 10SM OVC110 19/19 A2974 RMK AO2 T01900190
KUNI 230115Z AUTO 00000KT 10SM BKN120 20/20 A2972 RMK AO2 LTG DSNT E AND W T01950195
KUNI 230055Z AUTO 00000KT 10SM SCT085 BKN110 19/19 A2973 RMK AO2 LTG DSNT NW T01900190
KUNI 230035Z AUTO 16005KT 10SM -VCTSRA SCT026 BKN085 OVC110 19/19 A2974 RMK AO2 T01900190
KUNI 230015Z AUTO 16009KT 10SM -RA SCT075 19/19 A2975 RMK AO2 T01900190
KUNI 222355Z AUTO 00000KT 10SM VCTS CLR 19/19 A2974 RMK AO2 LTG DSNT SE T01900190 10267 20186
KUNI 222335Z AUTO 06007KT 10SM VCTS SCT120 20/20 A2972 RMK AO2 LTG DSNT E THRU S T01950195
KUNI 222315Z AUTO 00000KT 10SM -TSRA SCT100 SCT120 19/19 A2973 RMK AO2 LTG DSNT SE THRU NW T01930193
KUNI 222255Z AUTO 00000KT 10SM -VCTSRA SCT036 SCT055 BKN100 19/19 A2973 RMK AO2 LTG DSNT ALQS T01900190
KUNI 222235Z AUTO 15005KT 10SM -VCTSRA SCT006 SCT027 BKN045 19/19 A2974 RMK AO2 LTG DSNT ALQS T01900190
KUNI 222215Z AUTO 25022G32KT 5SM +TSRA SCT016 SCT030 BKN060 21/17 A2974 RMK AO2 LTG DSNT ALQS T02090169
KUNI 222155Z AUTO 00000KT 10SM VCTS CLR 24/20 A2972 RMK AO2 LTG DSNT SE W AND NW T02400203
KUNI 222135Z AUTO 15003KT 10SM VCTS CLR 24/20 A2971 RMK AO2 LTG DSNT SE W AND NW T02440200
KUNI 222115Z AUTO 00000KT 10SM CLR 25/20 A2969 RMK AO2 LTG DSNT S AND W T02520202
KUNI 222055Z AUTO 15003KT 10SM SCT120 25/20 A2972 RMK AO2 LTG DSNT SE AND NW T02480201
KUNI 222035Z AUTO 00000KT 10SM SCT110 24/20 A2973 RMK AO2 T02400199
KUNI 222015Z AUTO 00000KT 10SM SCT110 24/21 A2974 RMK AO2 LTG DSNT N AND SE T02350207
KUNI 221955Z AUTO 00000KT 10SM VCTS SCT110 22/21 A2973 RMK AO2 LTG DSNT N THRU S T02200211
KUNI 221935Z AUTO 00000KT 10SM -VCTSRA SCT030 SCT044 OVC095 20/20 A2974 RMK AO2 LTG DSNT N THRU SE T02010201
KUNI 221915Z AUTO 00000KT 5SM VCTSRA SCT014 BKN032 OVC047 20/20 A2974 RMK AO2 LTG DSNT ALQS T01950195
KUNI 221855Z AUTO 23018G30KT 7SM TSRA SCT023 BKN028 OVC045 22/19 A2974 RMK AO2 LTG DSNT S THRU NW T02190185
KUNI 221835Z AUTO 16006KT 10SM SCT028 SCT033 BKN040 26/21 A2972 RMK AO2 LTG DSNT W AND NW T02600206
KUNI 221815Z AUTO 16009KT 10SM SCT026 BKN035 BKN045 27/21 A2973 RMK AO2 LTG DSNT ALQS T02650206
KUNI 221755Z AUTO 15008KT 10SM SCT024 SCT034 27/21 A2973 RMK AO2 LTG DSNT N AND W T02660206 10270 20217
KUNI 221735Z AUTO 16009KT 10SM SCT023 SCT028 27/21 A2974 RMK AO2 LTG DSNT N AND W T02680209
KUNI 221715Z AUTO 12007KT 10SM SCT019 SCT025 26/21 A2975 RMK AO2 LTG DSNT N T02590207
KUNI 221655Z AUTO 14008KT 10SM SCT017 26/21 A2976 RMK AO2 LTG DSNT NW T02580206
KUNI 221635Z AUTO 16007KT 10SM SCT015 SCT023 26/22 A2977 RMK AO2 T02560215
KUNI 221615Z AUTO 19006KT 10SM SCT012 SCT017 SCT023 24/22 A2977 RMK AO2 LTG DSNT NW T02430219
KUNI 221555Z AUTO 19004KT 10SM SCT007 BKN015 BKN021 24/23 A2977 RMK AO2 T02390225
KUNI 221535Z AUTO 19003KT 10SM BKN011 OVC017 23/23 A2977 RMK AO2 LTG DSNT E T02300229
KUNI 221515Z AUTO 19003KT 10SM OVC009 23/23 A2976 RMK AO2 LTG DSNT E T02300230
KUNI 221455Z AUTO 20004KT 10SM OVC009 23/23 A2976 RMK AO2 LTG DSNT E T02290229
KUNI 221435Z AUTO 20004KT 10SM -RA OVC009 23/23 A2976 RMK AO2 LTG DSNT E T02270226
KUNI 221415Z AUTO 20005KT 10SM OVC007 23/23 A2977 RMK AO2 T02300229
KUNI 221355Z AUTO 20003KT 10SM OVC005 22/22 A2977 RMK AO2 T02230223
KUNI 221335Z AUTO 00000KT 10SM OVC007 22/22 A2977 RMK AO2 T02240224
KUNI 221315Z AUTO 18004KT 10SM OVC007 22/22 A2977 RMK AO2 T02210221
KUNI 221255Z AUTO 19005KT 10SM OVC007 22/22 A2977 RMK AO2 T02200220
KUNI 221235Z AUTO 19003KT 10SM OVC007 22/22 A2977 RMK AO2 T02200220
KUNI 221215Z AUTO 16003KT 10SM SCT004 OVC009 22/22 A2977 RMK AO2 T02200220
KUNI 221155Z AUTO 19003KT 10SM BKN004 BKN012 BKN075 22/22 A2976 RMK AO2 T02170217 10218 20205
KUNI 221135Z AUTO 18003KT 10SM CLR 22/22 A2976 RMK AO2 T02170217
KUNI 221115Z AUTO 00000KT 10SM BKN013 BKN060 BKN085 21/21 A2976 RMK AO2 T02140214
KUNI 221055Z AUTO 16003KT 10SM BKN013 BKN019 21/21 A2976 RMK AO2 T02100210
KUNI 221035Z AUTO 00000KT 10SM SCT013 SCT021 21/21 A2975 RMK AO2 T02050205
KUNI 221015Z AUTO 00000KT 10SM SCT013 BKN018 BKN023 21/21 A2974 RMK AO2 T02080208
KUNI 220955Z AUTO 00000KT 10SM SCT006 SCT015 BKN022 21/21 A2974 RMK AO2 T02100210
KUNI 220935Z AUTO 00000KT 10SM SCT003 BKN022 OVC110 21/21 A2974 RMK AO2 T02100210
KUNI 220915Z AUTO 00000KT 10SM SCT002 BKN012 OVC019 21/21 A2974 RMK AO2 T02100210
KUNI 220855Z AUTO 09003KT 10SM SCT002 BKN008 OVC013 21/21 A2973 RMK AO2 T02110211
KUNI 220835Z AUTO 00000KT 10SM BKN004 OVC011 21/21 A2973 RMK AO2 T02120212
KUNI 220815Z AUTO 00000KT 10SM OVC004 21/21 A2974 RMK AO2 T02110211
KUNI 220755Z AUTO 00000KT 10SM BKN004 OVC018 21/21 A2973 RMK AO2 T02120212
KUNI 220735Z AUTO 00000KT 10SM BKN004 BKN024 OVC036 21/21 A2973 RMK AO2 LTG DSNT W T02110211
KUNI 220715Z AUTO 00000KT 10SM OVC004 21/21 A2973 RMK AO2 T02110211
KUNI 220655Z AUTO 00000KT 7SM OVC004 21/21 A2974 RMK AO2 LTG DSNT W T02120212
KUNI 220635Z AUTO 00000KT 7SM OVC004 21/21 A2974 RMK AO2 T02120212
KUNI 220615Z AUTO 00000KT 5SM RA OVC004 21/21 A2975 RMK AO2 T02130213
KUNI 220555Z AUTO 16003KT 10SM BKN004 OVC007 21/21 A2976 RMK AO2 T02130213 10220 20211
KUNI 220535Z AUTO 18003KT 10SM SCT003 BKN010 OVC025 21/21 A2976 RMK AO2 T02130213
KUNI 220515Z AUTO 19003KT 10SM SCT004 OVC018 21/21 A2976 RMK AO2 T02130213
KUNI 220455Z AUTO 16003KT 10SM OVC004 21/21 A2976 RMK AO2 T02120212
KUNI 220435Z AUTO 00000KT 10SM OVC004 21/21 A2977 RMK AO2 T02130213
KUNI 220415Z AUTO 00000KT 10SM OVC006 21/21 A2977 RMK AO2 T02130213
KUNI 220355Z AUTO 00000KT 10SM BKN006 BKN010 OVC025 21/21 A2977 RMK AO2 T02130213 402440208
KUNI 220335Z AUTO 00000KT 10SM SCT004 BKN009 OVC014 21/21 A2977 RMK AO2 T02120212
KUNI 220315Z AUTO 29003KT 10SM DZ SCT004 BKN011 OVC024 21/21 A2977 RMK AO2 T02110211
KUNI 220255Z AUTO 00000KT 10SM RA SCT004 BKN008 OVC017 21/21 A2977 RMK AO2 T02110211
KUNI 220235Z AUTO 00000KT 10SM -RA SCT003 BKN006 OVC031 21/21 A2977 RMK AO2 T02110211
KUNI 220215Z AUTO 00000KT 5SM +RA SCT004 BKN008 OVC029 21/21 A2977 RMK AO2 T02120212
KUNI 220155Z AUTO 00000KT 4SM -RA SCT004 BKN019 OVC025 21/21 A2977 RMK AO2 T02110211